sensor_id;sensor_type;location;lat;lon;timestamp;pressure;altitude;pressure_sealevel;temperature;humidity
64200;BME280;50516;52.272;5.136;2023-05-17T00:01:55;102527.78;;;10.26;78.82
64200;BME280;50516;52.272;5.136;2023-05-17T00:04:21;102544.41;;;10.31;79.03
64200;BME280;50516;52.272;5.136;2023-05-17T00:06:48;102534.75;;;10.29;79.10
64200;BME280;50516;52.272;5.136;2023-05-17T00:09:14;102538.91;;;10.31;78.62
64200;BME280;50516;52.272;5.136;2023-05-17T00:11:39;102534.06;;;10.33;79.19
64200;BME280;50516;52.272;5.136;2023-05-17T00:14:05;102541.84;;;10.36;78.82
64200;BME280;50516;52.272;5.136;2023-05-17T00:16:30;102532.09;;;10.40;78.83
64200;BME280;50516;52.272;5.136;2023-05-17T00:18:55;102524.00;;;10.46;79.04
64200;BME280;50516;52.272;5.136;2023-05-17T00:21:21;102532.84;;;10.48;79.34
64200;BME280;50516;52.272;5.136;2023-05-17T00:23:46;102527.81;;;10.45;79.88
64200;BME280;50516;52.272;5.136;2023-05-17T00:26:11;102518.22;;;10.35;80.62
64200;BME280;50516;52.272;5.136;2023-05-17T00:28:37;102525.59;;;10.35;80.85
64200;BME280;50516;52.272;5.136;2023-05-17T00:31:03;102513.19;;;10.32;80.88
64200;BME280;50516;52.272;5.136;2023-05-17T00:33:28;102511.91;;;10.28;81.22
64200;BME280;50516;52.272;5.136;2023-05-17T00:35:53;102519.09;;;10.29;81.21
64200;BME280;50516;52.272;5.136;2023-05-17T00:38:19;102514.66;;;10.28;81.71
64200;BME280;50516;52.272;5.136;2023-05-17T00:40:44;102510.44;;;10.32;81.18
64200;BME280;50516;52.272;5.136;2023-05-17T00:43:09;102515.28;;;10.30;81.59
64200;BME280;50516;52.272;5.136;2023-05-17T00:45:35;102528.25;;;10.41;81.50
64200;BME280;50516;52.272;5.136;2023-05-17T00:48:00;102522.31;;;10.45;81.53
64200;BME280;50516;52.272;5.136;2023-05-17T00:50:26;102525.84;;;10.52;81.18
64200;BME280;50516;52.272;5.136;2023-05-17T00:52:51;102523.22;;;10.57;81.17
64200;BME280;50516;52.272;5.136;2023-05-17T00:55:17;102522.31;;;10.63;80.93
64200;BME280;50516;52.272;5.136;2023-05-17T00:57:44;102527.56;;;10.65;80.87
64200;BME280;50516;52.272;5.136;2023-05-17T01:00:09;102522.81;;;10.72;80.84
64200;BME280;50516;52.272;5.136;2023-05-17T01:02:35;102508.59;;;10.75;81.03
64200;BME280;50516;52.272;5.136;2023-05-17T01:05:00;102513.28;;;10.74;81.73
64200;BME280;50516;52.272;5.136;2023-05-17T01:07:26;102509.47;;;10.75;82.09
64200;BME280;50516;52.272;5.136;2023-05-17T01:09:51;102507.19;;;10.72;82.33
64200;BME280;50516;52.272;5.136;2023-05-17T01:15:14;102494.28;;;10.73;83.36
64200;BME280;50516;52.272;5.136;2023-05-17T01:20:37;102500.28;;;10.82;83.43
64200;BME280;50516;52.272;5.136;2023-05-17T01:25:53;102501.03;;;10.89;83.33
64200;BME280;50516;52.272;5.136;2023-05-17T01:28:20;102507.81;;;10.86;83.52
64200;BME280;50516;52.272;5.136;2023-05-17T01:30:49;102508.81;;;10.92;84.09
64200;BME280;50516;52.272;5.136;2023-05-17T01:33:16;102510.47;;;10.93;84.35
64200;BME280;50516;52.272;5.136;2023-05-17T01:35:42;102508.09;;;10.96;84.27
64200;BME280;50516;52.272;5.136;2023-05-17T01:38:07;102501.28;;;10.99;84.28
64200;BME280;50516;52.272;5.136;2023-05-17T01:40:34;102504.72;;;10.94;84.69
64200;BME280;50516;52.272;5.136;2023-05-17T01:43:09;102512.16;;;10.94;85.12
64200;BME280;50516;52.272;5.136;2023-05-17T01:45:43;102513.53;;;10.85;85.11
64200;BME280;50516;52.272;5.136;2023-05-17T01:48:20;102514.16;;;10.87;85.14
64200;BME280;50516;52.272;5.136;2023-05-17T01:50:48;102510.34;;;10.88;84.79
64200;BME280;50516;52.272;5.136;2023-05-17T01:53:29;102510.09;;;10.89;84.81
64200;BME280;50516;52.272;5.136;2023-05-17T01:56:02;102514.16;;;10.87;84.90
64200;BME280;50516;52.272;5.136;2023-05-17T01:58:29;102510.19;;;10.83;85.56
64200;BME280;50516;52.272;5.136;2023-05-17T02:00:59;102513.78;;;10.83;85.64
64200;BME280;50516;52.272;5.136;2023-05-17T02:03:26;102512.94;;;10.83;85.29
64200;BME280;50516;52.272;5.136;2023-05-17T02:05:52;102526.59;;;10.89;85.44
64200;BME280;50516;52.272;5.136;2023-05-17T02:08:17;102515.03;;;10.99;85.24
64200;BME280;50516;52.272;5.136;2023-05-17T02:10:42;102518.16;;;11.03;85.15
64200;BME280;50516;52.272;5.136;2023-05-17T02:18:18;102513.03;;;11.06;84.88
64200;BME280;50516;52.272;5.136;2023-05-17T02:20:46;102516.47;;;11.02;85.25
64200;BME280;50516;52.272;5.136;2023-05-17T02:23:11;102513.59;;;10.96;85.43
64200;BME280;50516;52.272;5.136;2023-05-17T02:25:36;102519.34;;;10.95;85.57
64200;BME280;50516;52.272;5.136;2023-05-17T02:28:02;102522.31;;;10.93;85.57
64200;BME280;50516;52.272;5.136;2023-05-17T02:30:27;102523.59;;;10.91;85.83
64200;BME280;50516;52.272;5.136;2023-05-17T02:32:53;102520.03;;;10.90;85.85
64200;BME280;50516;52.272;5.136;2023-05-17T02:35:20;102522.41;;;10.87;86.01
64200;BME280;50516;52.272;5.136;2023-05-17T02:37:46;102532.19;;;10.83;86.78
64200;BME280;50516;52.272;5.136;2023-05-17T02:40:12;102531.25;;;10.89;86.24
64200;BME280;50516;52.272;5.136;2023-05-17T02:42:37;102535.06;;;10.88;86.62
64200;BME280;50516;52.272;5.136;2023-05-17T02:45:03;102534.56;;;10.79;87.31
64200;BME280;50516;52.272;5.136;2023-05-17T02:47:28;102534.13;;;10.94;86.96
64200;BME280;50516;52.272;5.136;2023-05-17T02:49:54;102529.81;;;10.86;87.49
64200;BME280;50516;52.272;5.136;2023-05-17T02:52:19;102540.94;;;10.91;87.33
64200;BME280;50516;52.272;5.136;2023-05-17T02:54:45;102540.22;;;10.96;87.13
64200;BME280;50516;52.272;5.136;2023-05-17T02:57:11;102549.47;;;11.02;86.63
64200;BME280;50516;52.272;5.136;2023-05-17T02:59:37;102544.31;;;10.93;86.86
64200;BME280;50516;52.272;5.136;2023-05-17T03:02:02;102540.78;;;10.86;87.08
64200;BME280;50516;52.272;5.136;2023-05-17T03:04:27;102547.16;;;10.87;86.74
64200;BME280;50516;52.272;5.136;2023-05-17T03:06:53;102545.41;;;10.74;86.68
64200;BME280;50516;52.272;5.136;2023-05-17T03:09:19;102557.84;;;10.76;85.77
64200;BME280;50516;52.272;5.136;2023-05-17T03:11:45;102557.81;;;10.95;85.22
64200;BME280;50516;52.272;5.136;2023-05-17T03:14:10;102553.94;;;10.84;85.30
64200;BME280;50516;52.272;5.136;2023-05-17T03:16:35;102563.78;;;10.73;84.49
64200;BME280;50516;52.272;5.136;2023-05-17T03:19:01;102570.91;;;10.63;83.89
64200;BME280;50516;52.272;5.136;2023-05-17T03:21:26;102566.13;;;10.58;82.91
64200;BME280;50516;52.272;5.136;2023-05-17T03:23:52;102564.78;;;10.60;81.79
64200;BME280;50516;52.272;5.136;2023-05-17T03:26:17;102561.69;;;10.57;81.32
64200;BME280;50516;52.272;5.136;2023-05-17T03:28:44;102566.47;;;10.43;81.73
64200;BME280;50516;52.272;5.136;2023-05-17T03:31:10;102563.97;;;10.41;81.34
64200;BME280;50516;52.272;5.136;2023-05-17T03:33:35;102571.50;;;10.46;81.09
64200;BME280;50516;52.272;5.136;2023-05-17T03:36:01;102564.88;;;10.54;81.06
64200;BME280;50516;52.272;5.136;2023-05-17T03:38:26;102569.00;;;10.63;79.83
64200;BME280;50516;52.272;5.136;2023-05-17T03:40:51;102582.28;;;10.66;79.85
64200;BME280;50516;52.272;5.136;2023-05-17T03:43:17;102578.31;;;10.62;80.00
64200;BME280;50516;52.272;5.136;2023-05-17T03:45:43;102586.53;;;10.62;79.99
64200;BME280;50516;52.272;5.136;2023-05-17T03:48:08;102586.41;;;10.57;79.58
64200;BME280;50516;52.272;5.136;2023-05-17T03:50:33;102580.31;;;10.55;79.50
64200;BME280;50516;52.272;5.136;2023-05-17T03:52:59;102579.94;;;10.51;80.36
64200;BME280;50516;52.272;5.136;2023-05-17T03:55:24;102588.41;;;10.50;80.07
64200;BME280;50516;52.272;5.136;2023-05-17T03:57:50;102594.50;;;10.52;79.90
64200;BME280;50516;52.272;5.136;2023-05-17T04:00:15;102588.66;;;10.41;80.05
64200;BME280;50516;52.272;5.136;2023-05-17T04:02:46;102599.66;;;10.41;79.60
64200;BME280;50516;52.272;5.136;2023-05-17T04:05:12;102601.13;;;10.44;79.78
64200;BME280;50516;52.272;5.136;2023-05-17T04:07:37;102596.09;;;10.41;79.72
64200;BME280;50516;52.272;5.136;2023-05-17T04:10:03;102606.84;;;10.43;79.59
64200;BME280;50516;52.272;5.136;2023-05-17T04:12:29;102608.75;;;10.42;79.81
64200;BME280;50516;52.272;5.136;2023-05-17T04:14:54;102612.78;;;10.39;79.53
64200;BME280;50516;52.272;5.136;2023-05-17T04:17:20;102613.88;;;10.38;79.43
64200;BME280;50516;52.272;5.136;2023-05-17T04:19:45;102621.25;;;10.38;79.48
64200;BME280;50516;52.272;5.136;2023-05-17T04:22:10;102626.13;;;10.36;79.78
64200;BME280;50516;52.272;5.136;2023-05-17T04:24:36;102629.72;;;10.36;79.50
64200;BME280;50516;52.272;5.136;2023-05-17T04:27:01;102623.38;;;10.36;79.60
64200;BME280;50516;52.272;5.136;2023-05-17T04:29:28;102632.69;;;10.35;79.65
64200;BME280;50516;52.272;5.136;2023-05-17T04:31:53;102634.06;;;10.44;79.14
64200;BME280;50516;52.272;5.136;2023-05-17T04:34:19;102638.97;;;10.42;79.35
64200;BME280;50516;52.272;5.136;2023-05-17T04:36:46;102639.88;;;10.36;79.48
64200;BME280;50516;52.272;5.136;2023-05-17T04:39:11;102647.44;;;10.40;79.10
64200;BME280;50516;52.272;5.136;2023-05-17T04:41:37;102649.09;;;10.41;79.56
64200;BME280;50516;52.272;5.136;2023-05-17T04:44:02;102647.34;;;10.47;78.99
64200;BME280;50516;52.272;5.136;2023-05-17T04:46:28;102655.22;;;10.44;79.04
64200;BME280;50516;52.272;5.136;2023-05-17T04:48:53;102655.28;;;10.55;79.02
64200;BME280;50516;52.272;5.136;2023-05-17T04:51:20;102664.63;;;10.73;78.49
64200;BME280;50516;52.272;5.136;2023-05-17T04:53:45;102659.50;;;10.76;78.70
64200;BME280;50516;52.272;5.136;2023-05-17T04:56:10;102668.66;;;10.89;78.35
64200;BME280;50516;52.272;5.136;2023-05-17T04:58:36;102666.19;;;11.18;77.94
64200;BME280;50516;52.272;5.136;2023-05-17T05:01:01;102670.44;;;11.32;77.74
64200;BME280;50516;52.272;5.136;2023-05-17T05:03:27;102672.44;;;11.55;77.10
64200;BME280;50516;52.272;5.136;2023-05-17T05:05:55;102674.03;;;11.75;76.78
64200;BME280;50516;52.272;5.136;2023-05-17T05:08:20;102675.28;;;11.91;76.37
64200;BME280;50516;52.272;5.136;2023-05-17T05:10:52;102674.03;;;12.05;76.11
64200;BME280;50516;52.272;5.136;2023-05-17T05:13:17;102679.78;;;12.27;75.73
64200;BME280;50516;52.272;5.136;2023-05-17T05:15:42;102684.81;;;12.42;75.19
64200;BME280;50516;52.272;5.136;2023-05-17T05:18:07;102688.88;;;12.51;75.14
64200;BME280;50516;52.272;5.136;2023-05-17T05:20:33;102698.94;;;12.69;74.57
64200;BME280;50516;52.272;5.136;2023-05-17T05:22:58;102687.91;;;12.81;74.14
64200;BME280;50516;52.272;5.136;2023-05-17T05:25:25;102704.66;;;12.91;73.30
64200;BME280;50516;52.272;5.136;2023-05-17T05:27:50;102707.38;;;13.15;73.42
64200;BME280;50516;52.272;5.136;2023-05-17T05:30:16;102701.81;;;13.27;72.99
64200;BME280;50516;52.272;5.136;2023-05-17T05:32:49;102710.53;;;13.47;72.51
64200;BME280;50516;52.272;5.136;2023-05-17T05:35:15;102710.22;;;13.61;70.04
64200;BME280;50516;52.272;5.136;2023-05-17T05:37:41;102704.84;;;13.13;70.51
64200;BME280;50516;52.272;5.136;2023-05-17T05:40:08;102712.16;;;13.08;71.57
64200;BME280;50516;52.272;5.136;2023-05-17T05:42:33;102719.13;;;13.10;68.68
64200;BME280;50516;52.272;5.136;2023-05-17T05:44:59;102723.28;;;13.25;70.30
64200;BME280;50516;52.272;5.136;2023-05-17T05:47:24;102720.53;;;13.25;69.23
64200;BME280;50516;52.272;5.136;2023-05-17T05:49:49;102726.88;;;13.25;68.25
64200;BME280;50516;52.272;5.136;2023-05-17T05:52:15;102734.06;;;13.26;67.90
64200;BME280;50516;52.272;5.136;2023-05-17T05:54:40;102738.41;;;13.34;67.90
64200;BME280;50516;52.272;5.136;2023-05-17T05:57:05;102736.47;;;13.92;67.20
64200;BME280;50516;52.272;5.136;2023-05-17T05:59:31;102739.06;;;13.99;66.47
64200;BME280;50516;52.272;5.136;2023-05-17T06:01:56;102747.03;;;14.12;64.76
64200;BME280;50516;52.272;5.136;2023-05-17T06:04:21;102740.69;;;14.12;65.17
64200;BME280;50516;52.272;5.136;2023-05-17T06:06:47;102747.06;;;14.29;64.20
64200;BME280;50516;52.272;5.136;2023-05-17T06:09:12;102752.84;;;14.62;62.96
64200;BME280;50516;52.272;5.136;2023-05-17T06:11:37;102746.88;;;14.70;61.91
64200;BME280;50516;52.272;5.136;2023-05-17T06:14:03;102747.56;;;14.60;62.11
64200;BME280;50516;52.272;5.136;2023-05-17T06:16:29;102748.53;;;14.03;63.28
64200;BME280;50516;52.272;5.136;2023-05-17T06:18:54;102750.16;;;13.87;64.32
64200;BME280;50516;52.272;5.136;2023-05-17T06:21:20;102761.91;;;13.94;63.20
64200;BME280;50516;52.272;5.136;2023-05-17T06:23:45;102751.84;;;13.71;63.63
64200;BME280;50516;52.272;5.136;2023-05-17T06:26:10;102755.94;;;13.85;64.02
64200;BME280;50516;52.272;5.136;2023-05-17T06:28:36;102768.06;;;14.30;62.92
64200;BME280;50516;52.272;5.136;2023-05-17T06:31:02;102774.50;;;14.53;61.76
64200;BME280;50516;52.272;5.136;2023-05-17T06:33:27;102769.34;;;14.73;61.20
64200;BME280;50516;52.272;5.136;2023-05-17T06:35:54;102775.22;;;14.60;60.34
64200;BME280;50516;52.272;5.136;2023-05-17T06:38:19;102775.84;;;14.33;59.67
64200;BME280;50516;52.272;5.136;2023-05-17T06:40:44;102775.22;;;14.60;60.90
64200;BME280;50516;52.272;5.136;2023-05-17T06:43:10;102788.31;;;14.53;58.78
64200;BME280;50516;52.272;5.136;2023-05-17T06:45:35;102791.59;;;14.50;59.15
64200;BME280;50516;52.272;5.136;2023-05-17T06:48:00;102792.75;;;14.20;60.07
64200;BME280;50516;52.272;5.136;2023-05-17T06:50:25;102782.38;;;14.10;59.66
64200;BME280;50516;52.272;5.136;2023-05-17T06:52:52;102784.88;;;14.29;60.17
64200;BME280;50516;52.272;5.136;2023-05-17T06:55:18;102788.91;;;14.38;57.97
64200;BME280;50516;52.272;5.136;2023-05-17T06:57:43;102790.75;;;14.32;56.13
64200;BME280;50516;52.272;5.136;2023-05-17T07:00:09;102794.19;;;14.56;57.03
64200;BME280;50516;52.272;5.136;2023-05-17T07:02:35;102802.41;;;14.85;56.77
64200;BME280;50516;52.272;5.136;2023-05-17T07:05:02;102804.59;;;14.83;56.34
64200;BME280;50516;52.272;5.136;2023-05-17T07:07:27;102808.44;;;14.99;54.88
64200;BME280;50516;52.272;5.136;2023-05-17T07:09:52;102804.66;;;15.05;54.46
64200;BME280;50516;52.272;5.136;2023-05-17T07:12:18;102795.94;;;14.96;54.84
64200;BME280;50516;52.272;5.136;2023-05-17T07:14:43;102810.75;;;15.07;54.24
64200;BME280;50516;52.272;5.136;2023-05-17T07:17:10;102810.88;;;14.78;54.15
64200;BME280;50516;52.272;5.136;2023-05-17T07:19:35;102810.88;;;14.78;54.05
64200;BME280;50516;52.272;5.136;2023-05-17T07:22:00;102809.25;;;15.17;54.27
64200;BME280;50516;52.272;5.136;2023-05-17T07:24:26;102818.19;;;15.24;52.73
64200;BME280;50516;52.272;5.136;2023-05-17T07:26:51;102821.69;;;15.36;52.71
64200;BME280;50516;52.272;5.136;2023-05-17T07:29:17;102819.59;;;15.70;52.95
64200;BME280;50516;52.272;5.136;2023-05-17T07:31:42;102812.69;;;15.95;52.64
64200;BME280;50516;52.272;5.136;2023-05-17T07:34:07;102822.69;;;16.23;52.97
64200;BME280;50516;52.272;5.136;2023-05-17T07:36:33;102817.03;;;15.64;53.02
64200;BME280;50516;52.272;5.136;2023-05-17T07:38:58;102823.00;;;16.00;51.79
64200;BME280;50516;52.272;5.136;2023-05-17T07:41:23;102821.97;;;15.18;52.57
64200;BME280;50516;52.272;5.136;2023-05-17T07:43:49;102820.56;;;15.15;53.78
64200;BME280;50516;52.272;5.136;2023-05-17T07:46:17;102826.41;;;15.19;52.08
64200;BME280;50516;52.272;5.136;2023-05-17T07:48:42;102832.06;;;14.56;53.71
64200;BME280;50516;52.272;5.136;2023-05-17T07:51:07;102836.97;;;14.83;53.34
64200;BME280;50516;52.272;5.136;2023-05-17T07:53:33;102838.91;;;15.43;51.96
64200;BME280;50516;52.272;5.136;2023-05-17T07:55:58;102847.38;;;15.54;49.21
64200;BME280;50516;52.272;5.136;2023-05-17T07:58:23;102849.75;;;15.67;48.88
64200;BME280;50516;52.272;5.136;2023-05-17T08:00:49;102843.84;;;15.80;50.05
64200;BME280;50516;52.272;5.136;2023-05-17T08:03:14;102838.91;;;16.10;49.99
64200;BME280;50516;52.272;5.136;2023-05-17T08:05:39;102843.19;;;15.95;49.09
64200;BME280;50516;52.272;5.136;2023-05-17T08:08:05;102858.53;;;15.81;49.78
64200;BME280;50516;52.272;5.136;2023-05-17T08:10:30;102855.75;;;15.59;50.72
64200;BME280;50516;52.272;5.136;2023-05-17T08:12:56;102848.38;;;15.25;51.98
64200;BME280;50516;52.272;5.136;2023-05-17T08:15:21;102857.13;;;15.00;51.97
64200;BME280;50516;52.272;5.136;2023-05-17T08:17:46;102856.63;;;14.69;52.70
64200;BME280;50516;52.272;5.136;2023-05-17T08:20:12;102855.28;;;14.89;52.35
64200;BME280;50516;52.272;5.136;2023-05-17T08:22:37;102859.03;;;15.56;51.55
64200;BME280;50516;52.272;5.136;2023-05-17T08:25:03;102857.28;;;15.94;49.58
64200;BME280;50516;52.272;5.136;2023-05-17T08:27:28;102856.38;;;15.66;48.43
64200;BME280;50516;52.272;5.136;2023-05-17T08:29:56;102858.81;;;15.79;49.41
64200;BME280;50516;52.272;5.136;2023-05-17T08:32:22;102857.38;;;15.77;48.81
64200;BME280;50516;52.272;5.136;2023-05-17T08:34:48;102866.31;;;15.84;49.64
64200;BME280;50516;52.272;5.136;2023-05-17T08:37:13;102854.00;;;15.97;48.84
64200;BME280;50516;52.272;5.136;2023-05-17T08:39:38;102860.31;;;15.48;47.69
64200;BME280;50516;52.272;5.136;2023-05-17T08:42:07;102868.72;;;15.97;45.92
64200;BME280;50516;52.272;5.136;2023-05-17T08:44:33;102870.88;;;15.73;45.22
64200;BME280;50516;52.272;5.136;2023-05-17T08:46:58;102873.59;;;15.29;46.39
64200;BME280;50516;52.272;5.136;2023-05-17T08:49:26;102868.72;;;15.36;46.68
64200;BME280;50516;52.272;5.136;2023-05-17T08:51:53;102868.72;;;15.97;46.57
64200;BME280;50516;52.272;5.136;2023-05-17T08:54:18;102861.06;;;16.10;46.03
64200;BME280;50516;52.272;5.136;2023-05-17T08:56:44;102874.06;;;15.82;46.11
64200;BME280;50516;52.272;5.136;2023-05-17T08:59:11;102879.69;;;15.70;46.84
64200;BME280;50516;52.272;5.136;2023-05-17T09:01:38;102862.75;;;15.05;47.69
64200;BME280;50516;52.272;5.136;2023-05-17T09:04:07;102868.72;;;15.36;47.94
64200;BME280;50516;52.272;5.136;2023-05-17T09:06:33;102873.47;;;15.19;47.80
64200;BME280;50516;52.272;5.136;2023-05-17T09:08:59;102880.06;;;15.18;47.02
64200;BME280;50516;52.272;5.136;2023-05-17T09:11:29;102874.28;;;15.19;45.30
64200;BME280;50516;52.272;5.136;2023-05-17T09:13:57;102868.56;;;15.26;45.84
64200;BME280;50516;52.272;5.136;2023-05-17T09:16:23;102864.84;;;15.15;47.21
64200;BME280;50516;52.272;5.136;2023-05-17T09:18:54;102874.53;;;15.34;47.10
64200;BME280;50516;52.272;5.136;2023-05-17T09:21:21;102874.97;;;15.48;45.19
64200;BME280;50516;52.272;5.136;2023-05-17T09:23:47;102881.50;;;15.59;45.77
64200;BME280;50516;52.272;5.136;2023-05-17T09:26:12;102880.41;;;15.60;45.24
64200;BME280;50516;52.272;5.136;2023-05-17T09:28:39;102871.63;;;16.13;44.78
64200;BME280;50516;52.272;5.136;2023-05-17T09:31:07;102881.13;;;16.17;44.96
64200;BME280;50516;52.272;5.136;2023-05-17T09:33:33;102879.09;;;15.68;44.29
64200;BME280;50516;52.272;5.136;2023-05-17T09:36:00;102880.38;;;15.99;43.39
64200;BME280;50516;52.272;5.136;2023-05-17T09:38:26;102880.16;;;15.84;44.90
64200;BME280;50516;52.272;5.136;2023-05-17T09:40:52;102891.25;;;15.84;44.32
64200;BME280;50516;52.272;5.136;2023-05-17T09:43:22;102875.75;;;15.66;44.83
64200;BME280;50516;52.272;5.136;2023-05-17T09:45:54;102876.09;;;15.92;45.08
64200;BME280;50516;52.272;5.136;2023-05-17T09:48:20;102876.41;;;16.17;45.16
64200;BME280;50516;52.272;5.136;2023-05-17T09:50:47;102882.22;;;15.72;44.03
64200;BME280;50516;52.272;5.136;2023-05-17T09:53:29;102881.88;;;15.68;44.56
64200;BME280;50516;52.272;5.136;2023-05-17T09:56:00;102881.13;;;16.17;44.01
64200;BME280;50516;52.272;5.136;2023-05-17T09:58:26;102882.50;;;16.19;44.63
64200;BME280;50516;52.272;5.136;2023-05-17T10:00:57;102884.47;;;16.46;44.30
64200;BME280;50516;52.272;5.136;2023-05-17T10:03:28;102890.78;;;15.92;44.01
64200;BME280;50516;52.272;5.136;2023-05-17T10:05:54;102884.03;;;16.32;44.10
64200;BME280;50516;52.272;5.136;2023-05-17T10:08:22;102883.56;;;16.73;43.79
64200;BME280;50516;52.272;5.136;2023-05-17T10:10:48;102883.72;;;16.29;43.68
64200;BME280;50516;52.272;5.136;2023-05-17T10:13:17;102887.91;;;16.58;44.22
64200;BME280;50516;52.272;5.136;2023-05-17T10:15:46;102889.91;;;16.36;43.75
64200;BME280;50516;52.272;5.136;2023-05-17T10:18:13;102893.97;;;16.01;44.57
64200;BME280;50516;52.272;5.136;2023-05-17T10:20:40;102887.25;;;15.97;45.57
64200;BME280;50516;52.272;5.136;2023-05-17T10:23:07;102890.09;;;16.02;45.19
64200;BME280;50516;52.272;5.136;2023-05-17T10:25:33;102895.28;;;16.20;45.02
64200;BME280;50516;52.272;5.136;2023-05-17T10:27:59;102896.38;;;15.75;43.90
64200;BME280;50516;52.272;5.136;2023-05-17T10:30:27;102890.25;;;15.51;45.14
64200;BME280;50516;52.272;5.136;2023-05-17T10:32:52;102895.22;;;15.49;45.07
64200;BME280;50516;52.272;5.136;2023-05-17T10:35:20;102899.81;;;15.82;44.96
64200;BME280;50516;52.272;5.136;2023-05-17T10:37:45;102901.25;;;16.07;44.87
64200;BME280;50516;52.272;5.136;2023-05-17T10:40:11;102899.59;;;16.11;45.31
64200;BME280;50516;52.272;5.136;2023-05-17T10:42:44;102894.72;;;15.96;45.04
64200;BME280;50516;52.272;5.136;2023-05-17T10:45:12;102895.47;;;16.36;44.41
64200;BME280;50516;52.272;5.136;2023-05-17T10:47:39;102897.72;;;15.50;45.69
64200;BME280;50516;52.272;5.136;2023-05-17T10:50:09;102882.47;;;16.14;44.99
64200;BME280;50516;52.272;5.136;2023-05-17T10:52:37;102884.94;;;15.88;44.69
64200;BME280;50516;52.272;5.136;2023-05-17T10:55:09;102885.91;;;15.99;45.38
64200;BME280;50516;52.272;5.136;2023-05-17T10:57:35;102887.72;;;15.49;45.94
64200;BME280;50516;52.272;5.136;2023-05-17T11:00:04;102892.38;;;15.27;45.30
64200;BME280;50516;52.272;5.136;2023-05-17T11:02:31;102890.50;;;15.49;45.19
64200;BME280;50516;52.272;5.136;2023-05-17T11:04:56;102889.72;;;15.54;45.30
64200;BME280;50516;52.272;5.136;2023-05-17T11:07:28;102897.03;;;15.21;45.15
64200;BME280;50516;52.272;5.136;2023-05-17T11:14:57;102892.78;;;15.36;44.15
64200;BME280;50516;52.272;5.136;2023-05-17T11:17:33;102901.13;;;15.02;45.96
64200;BME280;50516;52.272;5.136;2023-05-17T11:20:07;102896.91;;;15.33;44.72
64200;BME280;50516;52.272;5.136;2023-05-17T11:25:13;102899.66;;;14.94;46.27
64200;BME280;50516;52.272;5.136;2023-05-17T11:27:44;102891.97;;;15.35;45.40
64200;BME280;50516;52.272;5.136;2023-05-17T11:30:21;102895.59;;;15.19;46.15
64200;BME280;50516;52.272;5.136;2023-05-17T11:32:52;102890.44;;;15.44;46.71
64200;BME280;50516;52.272;5.136;2023-05-17T11:35:18;102898.31;;;15.36;46.60
64200;BME280;50516;52.272;5.136;2023-05-17T11:37:51;102894.84;;;15.06;46.40
64200;BME280;50516;52.272;5.136;2023-05-17T11:40:23;102897.09;;;15.26;45.03
64200;BME280;50516;52.272;5.136;2023-05-17T11:43:08;102895.28;;;15.37;46.28
64200;BME280;50516;52.272;5.136;2023-05-17T11:45:53;102893.94;;;15.01;45.23
64200;BME280;50516;52.272;5.136;2023-05-17T11:48:21;102888.31;;;14.95;45.38
64200;BME280;50516;52.272;5.136;2023-05-17T11:50:47;102886.78;;;15.05;45.61
64200;BME280;50516;52.272;5.136;2023-05-17T11:53:13;102894.22;;;15.38;45.90
64200;BME280;50516;52.272;5.136;2023-05-17T11:55:44;102878.19;;;15.40;45.39
64200;BME280;50516;52.272;5.136;2023-05-17T11:58:13;102891.34;;;15.72;45.80
64200;BME280;50516;52.272;5.136;2023-05-17T12:00:39;102883.78;;;15.06;45.15
64200;BME280;50516;52.272;5.136;2023-05-17T12:03:27;102886.53;;;14.72;45.62
64200;BME280;50516;52.272;5.136;2023-05-17T12:06:07;102886.47;;;15.18;46.29
64200;BME280;50516;52.272;5.136;2023-05-17T12:08:34;102880.69;;;15.20;45.00
64200;BME280;50516;52.272;5.136;2023-05-17T12:11:00;102879.75;;;15.31;44.38
64200;BME280;50516;52.272;5.136;2023-05-17T12:13:30;102881.25;;;15.22;45.51
64200;BME280;50516;52.272;5.136;2023-05-17T12:15:59;102887.25;;;15.36;44.57
64200;BME280;50516;52.272;5.136;2023-05-17T12:21:01;102880.19;;;15.45;44.44
64200;BME280;50516;52.272;5.136;2023-05-17T12:23:37;102886.09;;;15.14;44.87
64200;BME280;50516;52.272;5.136;2023-05-17T12:26:10;102881.56;;;15.42;45.42
64200;BME280;50516;52.272;5.136;2023-05-17T12:28:37;102874.06;;;15.82;45.47
64200;BME280;50516;52.272;5.136;2023-05-17T12:31:11;102882.25;;;16.48;44.29
64200;BME280;50516;52.272;5.136;2023-05-17T12:33:42;102889.16;;;14.96;44.43
64200;BME280;50516;52.272;5.136;2023-05-17T12:36:09;102879.53;;;14.65;45.43
64200;BME280;50516;52.272;5.136;2023-05-17T12:38:36;102871.13;;;14.59;45.73
64200;BME280;50516;52.272;5.136;2023-05-17T12:41:06;102877.34;;;14.84;45.26
64200;BME280;50516;52.272;5.136;2023-05-17T12:43:33;102869.88;;;14.84;45.64
64200;BME280;50516;52.272;5.136;2023-05-17T12:46:06;102874.31;;;14.85;45.53
64200;BME280;50516;52.272;5.136;2023-05-17T12:48:39;102872.13;;;14.53;46.66
64200;BME280;50516;52.272;5.136;2023-05-17T12:51:26;102863.91;;;15.09;46.33
64200;BME280;50516;52.272;5.136;2023-05-17T12:53:55;102870.13;;;15.39;45.78
64200;BME280;50516;52.272;5.136;2023-05-17T12:56:23;102868.19;;;15.00;45.82
64200;BME280;50516;52.272;5.136;2023-05-17T12:59:14;102874.88;;;15.21;47.08
64200;BME280;50516;52.272;5.136;2023-05-17T13:01:46;102878.59;;;14.93;47.15
64200;BME280;50516;52.272;5.136;2023-05-17T13:04:13;102872.69;;;15.23;45.69
64200;BME280;50516;52.272;5.136;2023-05-17T13:06:59;102875.06;;;14.64;47.12
64200;BME280;50516;52.272;5.136;2023-05-17T13:09:25;102868.88;;;14.73;47.08
64200;BME280;50516;52.272;5.136;2023-05-17T13:12:04;102865.78;;;14.87;46.48
64200;BME280;50516;52.272;5.136;2023-05-17T13:14:39;102863.13;;;14.46;45.91